createdAt,value
2018-08-25T00:00:02.075Z,19.62
2018-08-25T00:02:32.369Z,19.60
2018-08-25T00:05:02.390Z,19.59
2018-08-25T00:07:32.302Z,19.52
2018-08-25T00:10:02.237Z,19.43
2018-08-25T00:12:32.189Z,19.43
2018-08-25T00:15:02.442Z,19.49
2018-08-25T00:17:32.304Z,19.50
2018-08-25T00:20:02.132Z,19.45
2018-08-25T00:22:33.884Z,19.42
2018-08-25T00:25:04.178Z,19.43
2018-08-25T00:27:34.250Z,19.10
2018-08-25T00:30:04.850Z,19.08
2018-08-25T00:32:34.732Z,19.08
2018-08-25T00:35:04.629Z,18.86
2018-08-25T00:37:34.675Z,18.88
2018-08-25T00:40:05.293Z,18.70
2018-08-25T00:42:35.141Z,18.73
2018-08-25T00:45:05.290Z,18.78
2018-08-25T00:47:35.193Z,18.80
2018-08-25T00:50:05.320Z,18.81
2018-08-25T00:52:35.172Z,18.87
2018-08-25T00:55:05.190Z,18.86
2018-08-25T00:57:35.273Z,18.88
2018-08-25T01:00:05.631Z,18.87
2018-08-25T01:02:35.665Z,18.87
2018-08-25T01:05:05.558Z,18.88
2018-08-25T01:07:35.465Z,18.90
2018-08-25T01:10:05.481Z,18.79
2018-08-25T01:12:35.368Z,18.77
2018-08-25T01:15:05.289Z,18.56
2018-08-25T01:17:35.219Z,18.55
2018-08-25T01:20:05.177Z,18.49
2018-08-25T01:22:35.246Z,18.46
2018-08-25T01:25:05.487Z,18.49
2018-08-25T01:27:35.519Z,18.55
2018-08-25T01:30:05.581Z,18.55
2018-08-25T01:32:35.711Z,18.56
2018-08-25T01:35:05.645Z,18.54
2018-08-25T01:37:35.441Z,18.53
2018-08-25T01:40:05.549Z,18.42
2018-08-25T01:42:35.398Z,18.13
2018-08-25T01:45:06.261Z,18.01
2018-08-25T01:47:36.337Z,17.92
2018-08-25T01:50:06.397Z,17.85
2018-08-25T01:52:36.277Z,17.84
2018-08-25T01:55:06.725Z,17.90
2018-08-25T01:57:36.538Z,17.98
2018-08-25T02:00:07.321Z,17.93
2018-08-25T02:02:37.234Z,17.94
2018-08-25T02:05:07.346Z,17.96
2018-08-25T02:07:37.212Z,17.98
2018-08-25T02:10:07.270Z,18.01
2018-08-25T02:12:37.425Z,18.03
2018-08-25T02:15:07.743Z,18.05
2018-08-25T02:17:37.981Z,18.06
2018-08-25T02:20:08.282Z,18.03
2018-08-25T02:22:38.102Z,18.07
2018-08-25T02:25:08.273Z,18.11
2018-08-25T02:27:38.839Z,18.07
2018-08-25T02:30:09.057Z,18.07
2018-08-25T02:32:39.072Z,18.07
2018-08-25T02:35:08.938Z,18.06
2018-08-25T02:37:38.889Z,18.07
2018-08-25T02:40:08.836Z,18.10
2018-08-25T02:42:38.878Z,18.09
2018-08-25T02:45:08.767Z,18.10
2018-08-25T02:47:38.585Z,18.11
2018-08-25T02:50:09.029Z,18.12
2018-08-25T02:52:38.842Z,18.12
2018-08-25T02:55:09.159Z,18.12
2018-08-25T02:57:39.097Z,18.13
2018-08-25T03:00:08.968Z,18.15
2018-08-25T03:02:40.064Z,18.15
2018-08-25T03:05:09.862Z,18.17
2018-08-25T03:07:41.274Z,18.18
2018-08-25T03:10:12.110Z,18.19
2018-08-25T03:12:43.590Z,18.19
2018-08-25T03:15:14.099Z,18.21
2018-08-25T03:17:45.228Z,18.22
2018-08-25T03:20:16.009Z,18.24
2018-08-25T03:22:47.026Z,18.26
2018-08-25T03:25:17.093Z,18.27
2018-08-25T03:27:48.233Z,18.27
2018-08-25T03:30:19.049Z,18.21
2018-08-25T03:32:50.289Z,18.24
2018-08-25T03:35:21.118Z,18.18
2018-08-25T03:37:52.433Z,18.18
2018-08-25T03:40:23.147Z,18.20
2018-08-25T03:42:54.284Z,18.21
2018-08-25T03:45:25.134Z,18.21
2018-08-25T03:47:56.169Z,18.21
2018-08-25T03:50:26.965Z,18.20
2018-08-25T03:52:58.170Z,18.20
2018-08-25T03:55:29.077Z,18.19
2018-08-25T03:58:00.106Z,18.17
2018-08-25T04:00:33.469Z,18.17
2018-08-25T04:03:04.063Z,18.12
2018-08-25T04:05:33.941Z,18.11
2018-08-25T04:08:04.015Z,18.10
2018-08-25T04:10:34.946Z,18.08
2018-08-25T04:13:06.300Z,18.06
2018-08-25T04:15:37.482Z,18.00
2018-08-25T04:18:08.092Z,17.94
2018-08-25T04:20:39.207Z,17.93
2018-08-25T04:23:10.049Z,17.86
2018-08-25T04:25:41.194Z,17.85
2018-08-25T04:28:12.364Z,17.87
2018-08-25T04:30:43.362Z,17.87
2018-08-25T04:33:14.241Z,17.89
2018-08-25T04:35:45.221Z,17.92
2018-08-25T04:38:16.085Z,17.87
2018-08-25T04:40:47.381Z,17.88
2018-08-25T04:43:18.034Z,17.87
2018-08-25T04:45:49.105Z,17.86
2018-08-25T04:48:19.933Z,17.90
2018-08-25T04:50:51.128Z,17.86
2018-08-25T04:53:21.853Z,17.88
2018-08-25T04:55:53.357Z,17.84
2018-08-25T04:58:23.141Z,17.84
2018-08-25T05:00:54.519Z,17.87
2018-08-25T05:03:25.044Z,17.87
2018-08-25T05:05:56.202Z,17.85
2018-08-25T05:08:27.209Z,17.93
2018-08-25T05:10:58.196Z,17.88
2018-08-25T05:13:29.074Z,17.85
2018-08-25T05:16:00.104Z,17.81
2018-08-25T05:18:31.353Z,17.77
2018-08-25T05:21:02.449Z,17.79
2018-08-25T05:23:33.085Z,17.80
2018-08-25T05:26:04.204Z,17.79
2018-08-25T05:28:35.049Z,17.78
2018-08-25T05:31:06.132Z,17.78
2018-08-25T05:33:37.102Z,17.80
2018-08-25T05:36:08.254Z,17.76
2018-08-25T05:38:39.290Z,17.79
2018-08-25T05:41:10.553Z,17.81
2018-08-25T05:43:41.140Z,17.81
2018-08-25T05:46:11.093Z,17.78
2018-08-25T05:48:42.030Z,17.79
2018-08-25T05:51:13.721Z,17.78
2018-08-25T05:53:45.190Z,17.78
2018-08-25T05:56:15.214Z,17.77
2018-08-25T05:58:46.309Z,17.76
2018-08-25T06:01:17.088Z,17.78
2018-08-25T06:03:48.177Z,17.82
2018-08-25T06:06:18.981Z,17.77
2018-08-25T06:08:50.506Z,17.81
2018-08-25T06:11:21.032Z,17.90
2018-08-25T06:13:51.990Z,17.95
2018-08-25T06:16:22.845Z,17.98
2018-08-25T06:18:54.494Z,18.05
2018-08-25T06:21:26.692Z,17.99
2018-08-25T06:23:56.778Z,18.04
2018-08-25T06:26:27.116Z,18.04
2018-08-25T06:28:58.680Z,18.10
2018-08-25T06:31:29.589Z,18.09
2018-08-25T06:34:00.670Z,18.08
2018-08-25T06:36:31.311Z,18.04
2018-08-25T06:39:10.349Z,18.04
2018-08-25T06:41:40.205Z,18.08
2018-08-25T06:44:09.973Z,18.13
2018-08-25T06:46:39.875Z,18.39
2018-08-25T06:49:10.602Z,18.68
2018-08-25T06:51:41.008Z,18.74
2018-08-25T06:54:10.873Z,18.71
2018-08-25T06:56:40.916Z,18.66
2018-08-25T06:59:10.896Z,18.60
2018-08-25T07:01:40.886Z,18.54
2018-08-25T07:04:12.822Z,18.48
2018-08-25T07:06:43.212Z,18.46
2018-08-25T07:09:14.546Z,18.44
2018-08-25T07:11:45.112Z,18.46
2018-08-25T07:14:16.234Z,18.46
2018-08-25T07:16:47.061Z,18.44
2018-08-25T07:19:18.213Z,18.40
2018-08-25T07:21:49.009Z,18.38
2018-08-25T07:24:20.188Z,18.38
2018-08-25T07:26:51.082Z,18.36
2018-08-25T07:29:22.054Z,18.39
2018-08-25T07:31:52.591Z,18.44
2018-08-25T07:34:23.549Z,18.48
2018-08-25T07:36:54.102Z,18.51
2018-08-25T07:39:25.163Z,18.53
2018-08-25T07:41:55.961Z,18.53
2018-08-25T07:44:27.077Z,18.54
2018-08-25T07:46:57.924Z,18.60
2018-08-25T07:49:29.053Z,18.59
2018-08-25T07:51:59.960Z,18.60
2018-08-25T07:54:32.686Z,18.62
2018-08-25T07:57:03.307Z,18.76
2018-08-25T07:59:33.299Z,18.81
2018-08-25T08:02:04.385Z,18.85
2018-08-25T08:04:35.669Z,18.91
2018-08-25T08:07:06.616Z,18.96
2018-08-25T08:09:37.257Z,19.00
2018-08-25T08:12:08.474Z,19.03
2018-08-25T08:14:39.545Z,19.14
2018-08-25T08:17:10.511Z,19.19
2018-08-25T08:19:41.568Z,19.27
2018-08-25T08:22:12.100Z,19.20
2018-08-25T08:24:42.113Z,19.29
2018-08-25T08:27:14.467Z,19.23
2018-08-25T08:29:44.240Z,19.32
2018-08-25T08:32:15.255Z,19.49
2018-08-25T08:34:46.162Z,19.58
2018-08-25T08:37:17.178Z,19.66
2018-08-25T08:39:47.990Z,19.60
2018-08-25T08:42:19.039Z,19.60
2018-08-25T08:44:50.302Z,19.62
2018-08-25T08:47:21.578Z,19.63
2018-08-25T08:49:52.250Z,19.76
2018-08-25T08:52:23.689Z,19.76
2018-08-25T08:54:54.261Z,19.76
2018-08-25T08:57:25.162Z,19.82
2018-08-25T08:59:56.535Z,19.80
2018-08-25T09:02:27.435Z,19.88
2018-08-25T09:04:58.095Z,19.85
2018-08-25T09:07:29.187Z,19.88
2018-08-25T09:10:00.048Z,19.86
2018-08-25T09:12:31.045Z,19.97
2018-08-25T09:15:00.909Z,20.14
2018-08-25T09:17:32.519Z,20.24
2018-08-25T09:20:03.074Z,20.51
2018-08-25T09:22:34.119Z,20.86
2018-08-25T09:25:04.971Z,21.12
2018-08-25T09:27:36.170Z,21.29
2018-08-25T09:30:07.235Z,21.51
2018-08-25T09:32:38.146Z,21.77
2018-08-25T09:35:09.142Z,21.86
2018-08-25T09:37:40.140Z,22.15
2018-08-25T09:40:10.933Z,22.39
2018-08-25T09:42:42.358Z,22.43
2018-08-25T09:45:13.067Z,22.54
2018-08-25T09:47:44.130Z,22.60
2018-08-25T09:50:15.170Z,22.63
2018-08-25T09:52:46.237Z,22.70
2018-08-25T09:55:17.099Z,22.71
2018-08-25T09:57:48.158Z,22.80
2018-08-25T10:00:18.957Z,22.90
2018-08-25T10:02:51.264Z,23.05
2018-08-25T10:05:22.721Z,23.20
2018-08-25T10:07:52.959Z,23.13
2018-08-25T10:10:23.082Z,23.07
2018-08-25T10:12:54.066Z,23.12
2018-08-25T10:15:24.873Z,23.23
2018-08-25T10:17:56.481Z,23.37
2018-08-25T10:20:27.048Z,23.40
2018-08-25T10:22:59.241Z,23.34
2018-08-25T10:25:29.509Z,23.27
2018-08-25T10:28:00.384Z,23.36
2018-08-25T10:30:31.716Z,23.15
2018-08-25T10:33:03.965Z,23.13
2018-08-25T10:35:33.910Z,23.08
2018-08-25T10:38:03.885Z,22.90
2018-08-25T10:40:36.562Z,22.86
2018-08-25T10:43:06.440Z,22.82
2018-08-25T10:45:38.262Z,22.92
2018-08-25T10:48:08.423Z,22.96
2018-08-25T10:50:40.180Z,22.82
2018-08-25T10:53:13.839Z,22.99
2018-08-25T10:55:43.987Z,23.10
2018-08-25T10:58:13.807Z,23.21
2018-08-25T11:00:43.903Z,23.37
2018-08-25T11:03:14.081Z,23.52
2018-08-25T11:05:44.897Z,23.62
2018-08-25T11:08:16.268Z,23.58
2018-08-25T11:10:47.502Z,23.33
2018-08-25T11:13:18.154Z,23.34
2018-08-25T11:15:49.181Z,23.33
2018-08-25T11:18:20.615Z,22.97
2018-08-25T11:20:51.125Z,23.18
2018-08-25T11:23:21.989Z,23.18
2018-08-25T11:25:53.092Z,23.18
2018-08-25T11:28:24.119Z,23.27
2018-08-25T11:30:55.085Z,23.20
2018-08-25T11:33:26.034Z,23.15
2018-08-25T11:35:56.954Z,23.22
2018-08-25T11:38:28.188Z,23.33
2018-08-25T11:41:00.051Z,23.23
2018-08-25T11:43:30.161Z,23.12
2018-08-25T11:46:00.956Z,23.17
2018-08-25T11:48:32.151Z,23.14
2018-08-25T11:51:03.074Z,23.22
2018-08-25T11:53:34.190Z,23.26
2018-08-25T11:56:04.962Z,23.25
2018-08-25T11:58:36.113Z,23.22
2018-08-25T12:01:07.300Z,23.17
2018-08-25T12:03:38.179Z,23.19
2018-08-25T12:06:10.157Z,23.06
2018-08-25T12:08:40.096Z,23.08
2018-08-25T12:11:10.812Z,23.23
2018-08-25T12:13:42.241Z,23.13
2018-08-25T12:16:13.039Z,23.12
2018-08-25T12:18:44.053Z,23.08
2018-08-25T12:21:14.881Z,22.92
2018-08-25T12:23:46.325Z,22.98
2018-08-25T12:26:17.161Z,22.85
2018-08-25T12:28:48.375Z,22.82
2018-08-25T12:31:19.270Z,22.89
2018-08-25T12:33:50.463Z,22.90
2018-08-25T12:36:21.178Z,22.84
2018-08-25T12:38:51.128Z,22.84
2018-08-25T12:41:22.030Z,22.81
2018-08-25T12:43:52.906Z,22.80
2018-08-25T12:46:24.629Z,22.68
2018-08-25T12:48:55.258Z,22.85
2018-08-25T12:51:26.202Z,22.87
2018-08-25T12:53:57.021Z,22.71
2018-08-25T12:56:29.765Z,22.80
2018-08-25T12:58:59.616Z,22.82
2018-08-25T13:01:30.512Z,22.79
2018-08-25T13:04:01.095Z,22.84
2018-08-25T13:06:32.093Z,22.95
2018-08-25T13:09:03.113Z,23.08
2018-08-25T13:11:34.134Z,23.08
2018-08-25T13:14:05.212Z,23.13
2018-08-25T13:16:36.167Z,23.07
2018-08-25T13:19:07.345Z,23.08
2018-08-25T13:21:39.265Z,23.05
2018-08-25T13:24:09.100Z,22.87
2018-08-25T13:26:41.072Z,22.71
2018-08-25T13:29:10.959Z,22.90
2018-08-25T13:31:43.243Z,22.87
2018-08-25T13:34:13.108Z,22.95
2018-08-25T13:36:44.390Z,22.84
2018-08-25T13:39:15.044Z,22.76
2018-08-25T13:41:46.358Z,22.86
2018-08-25T13:44:17.100Z,22.69
2018-08-25T13:46:49.346Z,22.73
2018-08-25T13:49:19.305Z,22.73
2018-08-25T13:51:51.261Z,22.73
2018-08-25T13:54:21.198Z,22.69
2018-08-25T13:56:52.166Z,22.71
2018-08-25T13:59:23.130Z,22.73
2018-08-25T14:01:53.964Z,22.67
2018-08-25T14:04:25.518Z,22.75
2018-08-25T14:06:56.125Z,22.70
2018-08-25T14:09:27.295Z,22.64
2018-08-25T14:11:58.159Z,22.73
2018-08-25T14:14:29.224Z,22.73
2018-08-25T14:17:00.103Z,22.72
2018-08-25T14:19:31.145Z,22.78
2018-08-25T14:22:02.243Z,22.70
2018-08-25T14:24:33.206Z,22.63
2018-08-25T14:27:04.167Z,22.65
2018-08-25T14:29:35.147Z,22.53
2018-08-25T14:32:05.885Z,22.54
2018-08-25T14:34:36.052Z,22.42
2018-08-25T14:37:07.341Z,22.38
2018-08-25T14:39:38.654Z,22.40
2018-08-25T14:42:09.266Z,22.35
2018-08-25T14:44:40.273Z,22.22
2018-08-25T14:47:11.127Z,22.03
2018-08-25T14:49:42.330Z,21.80
2018-08-25T14:52:14.680Z,21.58
2018-08-25T14:54:49.674Z,21.39
2018-08-25T14:57:19.620Z,21.42
2018-08-25T14:59:49.623Z,21.33
2018-08-25T15:02:20.057Z,21.24
2018-08-25T15:04:50.320Z,20.98
2018-08-25T15:07:21.257Z,20.85
2018-08-25T15:09:51.157Z,20.91
2018-08-25T15:12:22.638Z,20.93
2018-08-25T15:14:52.594Z,20.94
2018-08-25T15:17:23.694Z,20.90
2018-08-25T15:19:54.278Z,20.90
2018-08-25T15:22:25.333Z,20.89
2018-08-25T15:24:56.138Z,20.88
2018-08-25T15:27:28.719Z,20.91
2018-08-25T15:29:58.545Z,20.82
2018-08-25T15:32:29.617Z,20.93
2018-08-25T15:35:00.113Z,20.88
2018-08-25T15:37:31.619Z,20.80
2018-08-25T15:40:02.119Z,20.79
2018-08-25T15:42:33.166Z,20.70
2018-08-25T15:45:03.981Z,20.88
2018-08-25T15:47:35.031Z,21.15
2018-08-25T15:50:06.104Z,21.27
2018-08-25T15:52:37.290Z,21.43
2018-08-25T15:55:08.986Z,21.49
2018-08-25T15:57:39.480Z,21.59
2018-08-25T16:00:14.286Z,21.68
2018-08-25T16:02:48.523Z,21.78
2018-08-25T16:05:20.885Z,21.59
2018-08-25T16:07:53.246Z,21.41
2018-08-25T16:10:24.185Z,21.29
2018-08-25T16:12:54.370Z,21.25
2018-08-25T16:15:24.159Z,21.09
2018-08-25T16:17:54.373Z,21.00
2018-08-25T16:20:24.333Z,20.96
2018-08-25T16:22:54.773Z,20.92
2018-08-25T16:25:25.398Z,20.90
2018-08-25T16:28:01.877Z,20.91
2018-08-25T16:30:31.891Z,20.90
2018-08-25T16:33:01.906Z,20.84
2018-08-25T16:35:32.218Z,20.84
2018-08-25T16:38:02.432Z,20.83
2018-08-25T16:40:32.391Z,20.82
2018-08-25T16:43:03.369Z,20.74
2018-08-25T16:45:34.105Z,20.74
2018-08-25T16:48:04.185Z,20.66
2018-08-25T16:50:34.184Z,20.57
2018-08-25T16:53:04.091Z,20.64
2018-08-25T16:55:34.850Z,20.69
2018-08-25T16:58:05.015Z,20.72
2018-08-25T17:00:35.064Z,20.74
2018-08-25T17:03:04.937Z,20.76
2018-08-25T17:05:37.115Z,20.74
2018-08-25T17:08:08.521Z,20.74
2018-08-25T17:10:38.906Z,20.69
2018-08-25T17:13:08.797Z,20.67
2018-08-25T17:15:40.959Z,20.50
2018-08-25T17:18:11.331Z,20.62
2018-08-25T17:20:42.297Z,20.60
2018-08-25T17:23:13.511Z,20.58
2018-08-25T17:25:44.320Z,20.56
2018-08-25T17:28:15.120Z,20.51
2018-08-25T17:30:46.112Z,20.48
2018-08-25T17:33:16.970Z,20.43
2018-08-25T17:35:48.170Z,20.39
2018-08-25T17:38:20.054Z,20.33
2018-08-25T17:40:52.117Z,20.33
2018-08-25T17:43:21.907Z,20.29
2018-08-25T17:45:51.941Z,20.27
2018-08-25T17:48:24.635Z,20.22
2018-08-25T17:50:54.470Z,20.18
2018-08-25T17:53:25.620Z,20.14
2018-08-25T17:55:56.142Z,20.10
2018-08-25T17:58:27.184Z,20.04
2018-08-25T18:00:58.029Z,19.97
2018-08-25T18:03:29.372Z,19.93
2018-08-25T18:06:00.450Z,19.77
2018-08-25T18:08:31.226Z,19.79
2018-08-25T18:11:02.175Z,19.75
2018-08-25T18:13:33.464Z,19.70
2018-08-25T18:16:04.139Z,19.66
2018-08-25T18:18:35.130Z,19.65
2018-08-25T18:21:06.184Z,19.57
2018-08-25T18:23:37.242Z,19.49
2018-08-25T18:26:08.337Z,19.45
2018-08-25T18:28:39.527Z,19.37
2018-08-25T18:31:10.146Z,19.34
2018-08-25T18:33:41.062Z,19.29
2018-08-25T18:36:12.076Z,19.26
2018-08-25T18:38:43.233Z,19.22
2018-08-25T18:41:14.103Z,19.15
2018-08-25T18:43:46.169Z,19.10
2018-08-25T18:46:16.380Z,19.05
2018-08-25T18:48:47.212Z,19.03
2018-08-25T18:51:17.135Z,18.99
2018-08-25T18:53:48.126Z,18.97
2018-08-25T18:56:19.001Z,18.84
2018-08-25T18:58:50.143Z,18.76
2018-08-25T19:01:20.992Z,18.77
2018-08-25T19:03:53.008Z,18.70
2018-08-25T19:06:23.055Z,18.70
2018-08-25T19:08:54.205Z,18.66
2018-08-25T19:11:25.160Z,18.65
2018-08-25T19:13:57.250Z,18.48
2018-08-25T19:16:27.141Z,18.60
2018-08-25T19:18:58.308Z,18.58
2018-08-25T19:21:29.276Z,18.58
2018-08-25T19:24:00.318Z,18.55
2018-08-25T19:26:31.309Z,18.53
2018-08-25T19:29:02.284Z,18.51
2018-08-25T19:31:32.665Z,18.49
2018-08-25T19:34:03.856Z,18.47
2018-08-25T19:36:33.981Z,18.48
2018-08-25T19:39:07.771Z,18.49
2018-08-25T19:41:38.140Z,18.48
2018-08-25T19:44:08.332Z,18.48
2018-08-25T19:46:39.569Z,18.49
2018-08-25T19:49:09.646Z,18.47
2018-08-25T19:51:40.169Z,18.44
2018-08-25T19:54:11.923Z,18.43
2018-08-25T19:56:42.248Z,18.40
2018-08-25T19:59:13.280Z,18.40
2018-08-25T20:01:44.522Z,18.40
2018-08-25T20:04:15.446Z,18.40
2018-08-25T20:06:46.297Z,18.42
2018-08-25T20:09:17.497Z,18.41
2018-08-25T20:11:51.008Z,18.41
2018-08-25T20:14:21.220Z,18.42
2018-08-25T20:16:51.125Z,18.42
2018-08-25T20:19:21.010Z,18.42
2018-08-25T20:21:51.916Z,18.42
2018-08-25T20:24:23.158Z,18.42
2018-08-25T20:26:54.285Z,18.42
2018-08-25T20:29:25.211Z,18.41
2018-08-25T20:31:56.209Z,18.41
2018-08-25T20:34:26.375Z,18.40
2018-08-25T20:36:57.414Z,18.40
2018-08-25T20:39:28.292Z,18.40
2018-08-25T20:41:59.455Z,18.39
2018-08-25T20:44:30.217Z,18.40
2018-08-25T20:47:01.538Z,18.38
2018-08-25T20:49:32.113Z,18.38
2018-08-25T20:52:03.918Z,18.38
2018-08-25T20:54:33.822Z,18.39
2018-08-25T20:57:05.130Z,18.38
2018-08-25T20:59:35.227Z,18.38
2018-08-25T21:02:06.442Z,18.37
2018-08-25T21:04:37.245Z,18.37
2018-08-25T21:07:13.585Z,18.37
2018-08-25T21:09:45.124Z,18.36
2018-08-25T21:12:15.098Z,18.37
2018-08-25T21:14:45.097Z,18.36
2018-08-25T21:17:15.015Z,18.35
2018-08-25T21:19:45.056Z,18.35
2018-08-25T21:22:15.331Z,18.31
2018-08-25T21:24:45.364Z,18.30
2018-08-25T21:27:16.257Z,18.30
2018-08-25T21:29:48.118Z,18.29
2018-08-25T21:32:18.077Z,18.29
2018-08-25T21:34:49.258Z,18.28
2018-08-25T21:37:20.195Z,18.27
2018-08-25T21:39:51.653Z,18.24
2018-08-25T21:42:22.546Z,18.22
2018-08-25T21:44:53.410Z,18.19
2018-08-25T21:47:24.268Z,18.16
2018-08-25T21:49:55.879Z,18.13
2018-08-25T21:52:25.941Z,18.10
2018-08-25T21:54:57.201Z,18.07
2018-08-25T21:57:31.022Z,18.00
2018-08-25T22:00:01.193Z,17.93
2018-08-25T22:02:31.345Z,17.93
2018-08-25T22:19:11.328Z,17.85
2018-08-25T22:21:41.166Z,17.78
2018-08-25T22:24:11.337Z,17.80
2018-08-25T22:26:41.333Z,17.80
2018-08-25T22:29:11.225Z,17.79
2018-08-25T22:31:41.455Z,17.77
2018-08-25T22:34:11.239Z,17.77
2018-08-25T22:36:41.318Z,17.77
2018-08-25T22:39:12.840Z,17.75
2018-08-25T22:41:42.745Z,17.75
2018-08-25T22:44:13.574Z,17.74
2018-08-25T22:46:43.466Z,17.72
2018-08-25T22:49:13.410Z,17.67
2018-08-25T22:51:43.254Z,17.71
2018-08-25T22:54:13.414Z,17.72
2018-08-25T22:56:43.514Z,17.73
2018-08-25T22:59:13.367Z,17.73
2018-08-25T23:01:43.310Z,17.60
2018-08-25T23:04:13.157Z,17.72
2018-08-25T23:06:43.196Z,17.71
2018-08-25T23:09:13.382Z,17.69
2018-08-25T23:11:48.422Z,17.69
2018-08-25T23:14:18.393Z,17.69
2018-08-25T23:16:48.294Z,17.68
2018-08-25T23:19:18.126Z,17.68
2018-08-25T23:21:48.236Z,17.68
2018-08-25T23:24:18.597Z,17.65
2018-08-25T23:26:48.501Z,17.60
2018-08-25T23:29:18.365Z,17.58
2018-08-25T23:31:48.279Z,17.56
2018-08-25T23:34:18.201Z,17.53
2018-08-25T23:36:48.459Z,17.53
2018-08-25T23:39:18.798Z,17.50
2018-08-25T23:41:48.686Z,17.49
2018-08-25T23:44:18.603Z,17.47
2018-08-25T23:46:48.826Z,17.46
2018-08-25T23:49:18.687Z,17.46
2018-08-25T23:51:48.853Z,17.43
2018-08-25T23:54:18.771Z,17.41
2018-08-25T23:56:48.748Z,17.38
2018-08-25T23:59:18.624Z,17.36
